sensor_id;sensor_type;location;lat;lon;timestamp;P1;durP1;ratioP1;P2;durP2;ratioP2
72109;SDS011;59983;52.010;5.420;2024-03-08T09:04:05;8.47;;;7.97;;
72109;SDS011;59983;52.010;5.420;2024-03-08T09:06:32;9.18;;;8.35;;
72109;SDS011;59983;52.010;5.420;2024-03-08T09:08:58;9.85;;;8.73;;
72109;SDS011;59983;52.010;5.420;2024-03-08T09:11:29;11.60;;;9.07;;
72109;SDS011;59983;52.010;5.420;2024-03-08T09:13:56;9.68;;;8.75;;
72109;SDS011;59983;52.010;5.420;2024-03-08T09:16:23;9.17;;;7.30;;
72109;SDS011;59983;52.010;5.420;2024-03-08T09:18:51;8.15;;;7.55;;
72109;SDS011;59983;52.010;5.420;2024-03-08T09:21:17;10.45;;;8.90;;
72109;SDS011;59983;52.010;5.420;2024-03-08T09:23:46;7.63;;;7.03;;
72109;SDS011;59983;52.010;5.420;2024-03-08T09:26:13;8.20;;;7.55;;
72109;SDS011;59983;52.010;5.420;2024-03-08T09:28:53;10.40;;;7.80;;
72109;SDS011;59983;52.010;5.420;2024-03-08T09:31:23;7.13;;;6.63;;
72109;SDS011;59983;52.010;5.420;2024-03-08T09:33:50;8.15;;;7.63;;
72109;SDS011;59983;52.010;5.420;2024-03-08T09:36:17;7.85;;;7.35;;
72109;SDS011;59983;52.010;5.420;2024-03-08T09:38:44;8.05;;;7.55;;
72109;SDS011;59983;52.010;5.420;2024-03-08T09:41:10;7.73;;;7.03;;
72109;SDS011;59983;52.010;5.420;2024-03-08T09:43:37;7.93;;;7.43;;
72109;SDS011;59983;52.010;5.420;2024-03-08T09:46:04;9.27;;;8.48;;
72109;SDS011;59983;52.010;5.420;2024-03-08T09:48:33;8.98;;;8.07;;
72109;SDS011;59983;52.010;5.420;2024-03-08T09:51:00;8.02;;;7.32;;
72109;SDS011;59983;52.010;5.420;2024-03-08T09:53:28;9.03;;;8.23;;
72109;SDS011;59983;52.010;5.420;2024-03-08T09:55:54;9.18;;;8.38;;
72109;SDS011;59983;52.010;5.420;2024-03-08T09:58:21;8.95;;;8.25;;
72109;SDS011;59983;52.010;5.420;2024-03-08T10:00:59;8.63;;;7.90;;
72109;SDS011;59983;52.010;5.420;2024-03-08T10:03:31;9.15;;;8.38;;
72109;SDS011;59983;52.010;5.420;2024-03-08T10:05:59;8.83;;;8.03;;
72109;SDS011;59983;52.010;5.420;2024-03-08T10:08:27;8.90;;;8.10;;
72109;SDS011;59983;52.010;5.420;2024-03-08T10:10:57;9.20;;;8.50;;
72109;SDS011;59983;52.010;5.420;2024-03-08T10:13:27;10.27;;;9.25;;
72109;SDS011;59983;52.010;5.420;2024-03-08T10:15:54;8.75;;;8.10;;
72109;SDS011;59983;52.010;5.420;2024-03-08T10:18:21;13.87;;;9.07;;
72109;SDS011;59983;52.010;5.420;2024-03-08T10:21:01;9.60;;;8.90;;
72109;SDS011;59983;52.010;5.420;2024-03-08T10:23:33;9.38;;;8.57;;
72109;SDS011;59983;52.010;5.420;2024-03-08T10:26:10;8.95;;;8.18;;
72109;SDS011;59983;52.010;5.420;2024-03-08T10:28:39;9.13;;;8.32;;
72109;SDS011;59983;52.010;5.420;2024-03-08T10:31:05;10.17;;;9.17;;
72109;SDS011;59983;52.010;5.420;2024-03-08T10:33:32;9.00;;;8.30;;
72109;SDS011;59983;52.010;5.420;2024-03-08T10:35:59;10.45;;;8.95;;
72109;SDS011;59983;52.010;5.420;2024-03-08T10:38:27;9.15;;;8.35;;
72109;SDS011;59983;52.010;5.420;2024-03-08T10:40:59;9.38;;;8.52;;
72109;SDS011;59983;52.010;5.420;2024-03-08T10:43:28;8.10;;;7.40;;
72109;SDS011;59983;52.010;5.420;2024-03-08T10:46:06;8.75;;;7.97;;
72109;SDS011;59983;52.010;5.420;2024-03-08T10:48:45;7.85;;;7.25;;
72109;SDS011;59983;52.010;5.420;2024-03-08T10:51:15;8.23;;;7.43;;
72109;SDS011;59983;52.010;5.420;2024-03-08T10:53:42;8.55;;;7.85;;
72109;SDS011;59983;52.010;5.420;2024-03-08T10:56:11;8.67;;;7.93;;
72109;SDS011;59983;52.010;5.420;2024-03-08T10:58:40;8.05;;;7.38;;
72109;SDS011;59983;52.010;5.420;2024-03-08T11:01:10;7.65;;;7.05;;
72109;SDS011;59983;52.010;5.420;2024-03-08T11:06:18;7.97;;;7.30;;
72109;SDS011;59983;52.010;5.420;2024-03-08T11:08:49;8.73;;;7.87;;
72109;SDS011;59983;52.010;5.420;2024-03-08T11:14:02;8.43;;;7.82;;
72109;SDS011;59983;52.010;5.420;2024-03-08T11:19:01;8.82;;;8.02;;
72109;SDS011;59983;52.010;5.420;2024-03-08T11:21:37;7.27;;;6.77;;
72109;SDS011;59983;52.010;5.420;2024-03-08T11:24:07;8.55;;;7.68;;
72109;SDS011;59983;52.010;5.420;2024-03-08T11:26:38;8.32;;;7.63;;
72109;SDS011;59983;52.010;5.420;2024-03-08T11:29:32;8.77;;;8.18;;
72109;SDS011;59983;52.010;5.420;2024-03-08T11:32:12;8.27;;;7.57;;
72109;SDS011;59983;52.010;5.420;2024-03-08T11:34:42;7.47;;;6.77;;
72109;SDS011;59983;52.010;5.420;2024-03-08T11:37:14;8.30;;;7.63;;
72109;SDS011;59983;52.010;5.420;2024-03-08T11:39:49;7.75;;;7.15;;
72109;SDS011;59983;52.010;5.420;2024-03-08T11:42:17;8.27;;;7.55;;
72109;SDS011;59983;52.010;5.420;2024-03-08T11:44:45;7.70;;;7.20;;
72109;SDS011;59983;52.010;5.420;2024-03-08T11:47:14;7.83;;;7.23;;
72109;SDS011;59983;52.010;5.420;2024-03-08T11:49:43;8.00;;;7.20;;
72109;SDS011;59983;52.010;5.420;2024-03-08T11:52:11;8.32;;;7.65;;
72109;SDS011;59983;52.010;5.420;2024-03-08T12:01:29;7.73;;;7.07;;
72109;SDS011;59983;52.010;5.420;2024-03-08T12:16:09;6.90;;;6.32;;
72109;SDS011;59983;52.010;5.420;2024-03-08T12:22:30;7.25;;;6.65;;
72109;SDS011;59983;52.010;5.420;2024-03-08T12:25:03;7.15;;;6.55;;
72109;SDS011;59983;52.010;5.420;2024-03-08T12:27:32;7.35;;;6.85;;
72109;SDS011;59983;52.010;5.420;2024-03-08T12:36:59;6.75;;;6.25;;
72109;SDS011;59983;52.010;5.420;2024-03-08T12:39:25;7.63;;;6.97;;
72109;SDS011;59983;52.010;5.420;2024-03-08T12:41:54;7.15;;;6.57;;
72109;SDS011;59983;52.010;5.420;2024-03-08T12:44:21;7.30;;;6.80;;
72109;SDS011;59983;52.010;5.420;2024-03-08T12:46:48;7.60;;;6.90;;
72109;SDS011;59983;52.010;5.420;2024-03-08T12:49:18;7.65;;;6.93;;
72109;SDS011;59983;52.010;5.420;2024-03-08T12:51:48;7.30;;;6.80;;
72109;SDS011;59983;52.010;5.420;2024-03-08T12:54:15;7.43;;;6.90;;
72109;SDS011;59983;52.010;5.420;2024-03-08T12:56:41;7.40;;;6.68;;
72109;SDS011;59983;52.010;5.420;2024-03-08T12:59:08;7.30;;;6.80;;
72109;SDS011;59983;52.010;5.420;2024-03-08T13:01:36;7.70;;;7.10;;
72109;SDS011;59983;52.010;5.420;2024-03-08T13:04:06;7.22;;;6.63;;
72109;SDS011;59983;52.010;5.420;2024-03-08T13:06:35;8.38;;;7.57;;
72109;SDS011;59983;52.010;5.420;2024-03-08T13:09:01;7.88;;;7.07;;
72109;SDS011;59983;52.010;5.420;2024-03-08T13:11:32;7.80;;;7.20;;
72109;SDS011;59983;52.010;5.420;2024-03-08T13:14:03;7.43;;;6.72;;
72109;SDS011;59983;52.010;5.420;2024-03-08T13:16:32;7.82;;;7.07;;
72109;SDS011;59983;52.010;5.420;2024-03-08T13:18:59;6.95;;;6.45;;
72109;SDS011;59983;52.010;5.420;2024-03-08T13:21:25;6.90;;;6.32;;
72109;SDS011;59983;52.010;5.420;2024-03-08T13:23:52;12.07;;;6.00;;
72109;SDS011;59983;52.010;5.420;2024-03-08T13:26:19;6.93;;;6.43;;
72109;SDS011;59983;52.010;5.420;2024-03-08T13:28:47;7.47;;;6.88;;
72109;SDS011;59983;52.010;5.420;2024-03-08T13:31:20;8.38;;;6.97;;
72109;SDS011;59983;52.010;5.420;2024-03-08T13:33:47;7.60;;;6.90;;
72109;SDS011;59983;52.010;5.420;2024-03-08T13:36:14;6.53;;;6.03;;
72109;SDS011;59983;52.010;5.420;2024-03-08T13:38:45;6.80;;;6.38;;
72109;SDS011;59983;52.010;5.420;2024-03-08T13:41:12;6.80;;;6.30;;
72109;SDS011;59983;52.010;5.420;2024-03-08T13:43:47;6.55;;;6.05;;
72109;SDS011;59983;52.010;5.420;2024-03-08T13:46:17;6.78;;;6.28;;
72109;SDS011;59983;52.010;5.420;2024-03-08T13:48:44;6.67;;;6.17;;
72109;SDS011;59983;52.010;5.420;2024-03-08T13:51:11;6.63;;;6.03;;
72109;SDS011;59983;52.010;5.420;2024-03-08T13:53:41;6.82;;;6.13;;
72109;SDS011;59983;52.010;5.420;2024-03-08T13:56:08;6.53;;;6.03;;
72109;SDS011;59983;52.010;5.420;2024-03-08T13:58:37;6.20;;;5.70;;
72109;SDS011;59983;52.010;5.420;2024-03-08T14:01:06;5.83;;;5.33;;
72109;SDS011;59983;52.010;5.420;2024-03-08T14:03:38;6.20;;;5.70;;
72109;SDS011;59983;52.010;5.420;2024-03-08T14:06:08;6.32;;;5.88;;
72109;SDS011;59983;52.010;5.420;2024-03-08T14:08:35;6.90;;;6.40;;
72109;SDS011;59983;52.010;5.420;2024-03-08T14:11:05;7.03;;;6.53;;
72109;SDS011;59983;52.010;5.420;2024-03-08T14:13:43;6.90;;;6.17;;
72109;SDS011;59983;52.010;5.420;2024-03-08T14:16:13;6.40;;;5.97;;
72109;SDS011;59983;52.010;5.420;2024-03-08T14:18:40;7.07;;;6.55;;
72109;SDS011;59983;52.010;5.420;2024-03-08T14:21:08;7.55;;;6.80;;
72109;SDS011;59983;52.010;5.420;2024-03-08T14:23:35;7.20;;;6.60;;
72109;SDS011;59983;52.010;5.420;2024-03-08T14:26:05;7.00;;;6.50;;
72109;SDS011;59983;52.010;5.420;2024-03-08T14:28:34;5.97;;;5.47;;
72109;SDS011;59983;52.010;5.420;2024-03-08T14:31:03;6.75;;;6.15;;
72109;SDS011;59983;52.010;5.420;2024-03-08T14:33:32;5.97;;;5.47;;
72109;SDS011;59983;52.010;5.420;2024-03-08T14:36:00;6.22;;;5.82;;
72109;SDS011;59983;52.010;5.420;2024-03-08T14:38:27;6.23;;;5.80;;
72109;SDS011;59983;52.010;5.420;2024-03-08T14:40:55;6.35;;;5.95;;
72109;SDS011;59983;52.010;5.420;2024-03-08T14:43:22;7.43;;;6.55;;
72109;SDS011;59983;52.010;5.420;2024-03-08T14:45:49;5.85;;;5.45;;
72109;SDS011;59983;52.010;5.420;2024-03-08T14:48:17;6.40;;;5.80;;
72109;SDS011;59983;52.010;5.420;2024-03-08T14:50:44;6.17;;;5.60;;
72109;SDS011;59983;52.010;5.420;2024-03-08T14:53:14;5.95;;;5.55;;
72109;SDS011;59983;52.010;5.420;2024-03-08T14:55:43;5.63;;;5.32;;
72109;SDS011;59983;52.010;5.420;2024-03-08T14:58:13;6.25;;;5.85;;
72109;SDS011;59983;52.010;5.420;2024-03-08T15:00:40;6.72;;;6.18;;
72109;SDS011;59983;52.010;5.420;2024-03-08T15:03:08;5.80;;;5.40;;
72109;SDS011;59983;52.010;5.420;2024-03-08T15:05:39;5.97;;;5.57;;
72109;SDS011;59983;52.010;5.420;2024-03-08T15:08:08;6.88;;;5.68;;
72109;SDS011;59983;52.010;5.420;2024-03-08T15:10:46;5.82;;;5.43;;
72109;SDS011;59983;52.010;5.420;2024-03-08T15:13:14;7.78;;;6.60;;
72109;SDS011;59983;52.010;5.420;2024-03-08T15:15:48;5.50;;;5.10;;
72109;SDS011;59983;52.010;5.420;2024-03-08T15:18:22;6.97;;;6.47;;
72109;SDS011;59983;52.010;5.420;2024-03-08T15:20:52;6.63;;;6.00;;
72109;SDS011;59983;52.010;5.420;2024-03-08T15:23:19;6.35;;;5.95;;
72109;SDS011;59983;52.010;5.420;2024-03-08T15:25:47;6.35;;;5.95;;
72109;SDS011;59983;52.010;5.420;2024-03-08T15:28:15;5.70;;;5.30;;
72109;SDS011;59983;52.010;5.420;2024-03-08T15:30:48;5.75;;;5.28;;
72109;SDS011;59983;52.010;5.420;2024-03-08T15:33:20;6.05;;;5.60;;
72109;SDS011;59983;52.010;5.420;2024-03-08T15:35:52;5.80;;;5.40;;
72109;SDS011;59983;52.010;5.420;2024-03-08T15:38:25;6.30;;;5.80;;
72109;SDS011;59983;52.010;5.420;2024-03-08T15:40:54;6.37;;;5.93;;
72109;SDS011;59983;52.010;5.420;2024-03-08T15:43:21;5.90;;;5.40;;
72109;SDS011;59983;52.010;5.420;2024-03-08T15:45:48;6.65;;;6.05;;
72109;SDS011;59983;52.010;5.420;2024-03-08T15:48:15;6.55;;;5.95;;
72109;SDS011;59983;52.010;5.420;2024-03-08T15:50:42;6.15;;;5.75;;
72109;SDS011;59983;52.010;5.420;2024-03-08T15:53:09;6.87;;;6.37;;
72109;SDS011;59983;52.010;5.420;2024-03-08T15:55:39;5.82;;;5.43;;
72109;SDS011;59983;52.010;5.420;2024-03-08T15:58:07;5.95;;;5.55;;
72109;SDS011;59983;52.010;5.420;2024-03-08T16:00:38;6.25;;;5.72;;
72109;SDS011;59983;52.010;5.420;2024-03-08T16:03:14;6.65;;;5.43;;
72109;SDS011;59983;52.010;5.420;2024-03-08T16:05:42;6.37;;;5.60;;
72109;SDS011;59983;52.010;5.420;2024-03-08T16:08:12;6.20;;;5.60;;
72109;SDS011;59983;52.010;5.420;2024-03-08T16:10:44;8.80;;;5.85;;
72109;SDS011;59983;52.010;5.420;2024-03-08T16:13:21;11.90;;;5.97;;
72109;SDS011;59983;52.010;5.420;2024-03-08T16:15:50;10.85;;;7.28;;
72109;SDS011;59983;52.010;5.420;2024-03-08T16:18:19;8.80;;;5.30;;
72109;SDS011;59983;52.010;5.420;2024-03-08T16:20:51;8.23;;;5.10;;
72109;SDS011;59983;52.010;5.420;2024-03-08T16:23:19;8.43;;;5.53;;
72109;SDS011;59983;52.010;5.420;2024-03-08T16:25:49;7.38;;;6.47;;
72109;SDS011;59983;52.010;5.420;2024-03-08T16:28:16;8.60;;;5.72;;
72109;SDS011;59983;52.010;5.420;2024-03-08T16:30:44;5.20;;;4.90;;
72109;SDS011;59983;52.010;5.420;2024-03-08T16:33:21;5.53;;;5.10;;
72109;SDS011;59983;52.010;5.420;2024-03-08T16:35:49;5.80;;;5.30;;
72109;SDS011;59983;52.010;5.420;2024-03-08T16:38:16;6.65;;;6.07;;
72109;SDS011;59983;52.010;5.420;2024-03-08T16:40:43;6.10;;;5.70;;
72109;SDS011;59983;52.010;5.420;2024-03-08T16:43:11;5.53;;;5.13;;
72109;SDS011;59983;52.010;5.420;2024-03-08T16:45:40;6.38;;;5.88;;
72109;SDS011;59983;52.010;5.420;2024-03-08T16:48:08;5.95;;;5.50;;
72109;SDS011;59983;52.010;5.420;2024-03-08T16:50:36;5.85;;;5.32;;
72109;SDS011;59983;52.010;5.420;2024-03-08T16:53:03;5.97;;;5.47;;
72109;SDS011;59983;52.010;5.420;2024-03-08T16:55:30;5.20;;;4.90;;
72109;SDS011;59983;52.010;5.420;2024-03-08T16:57:58;5.70;;;5.32;;
72109;SDS011;59983;52.010;5.420;2024-03-08T17:00:25;5.60;;;5.18;;
72109;SDS011;59983;52.010;5.420;2024-03-08T17:02:55;5.55;;;4.85;;
72109;SDS011;59983;52.010;5.420;2024-03-08T17:05:24;6.15;;;5.60;;
72109;SDS011;59983;52.010;5.420;2024-03-08T17:07:55;6.37;;;5.77;;
72109;SDS011;59983;52.010;5.420;2024-03-08T17:10:27;5.95;;;5.55;;
72109;SDS011;59983;52.010;5.420;2024-03-08T17:12:55;5.80;;;5.40;;
72109;SDS011;59983;52.010;5.420;2024-03-08T17:15:25;5.30;;;4.90;;
72109;SDS011;59983;52.010;5.420;2024-03-08T17:17:54;5.30;;;4.93;;
72109;SDS011;59983;52.010;5.420;2024-03-08T17:20:25;5.93;;;5.33;;
72109;SDS011;59983;52.010;5.420;2024-03-08T17:22:53;6.20;;;5.70;;
72109;SDS011;59983;52.010;5.420;2024-03-08T17:25:24;6.47;;;5.88;;
72109;SDS011;59983;52.010;5.420;2024-03-08T17:27:55;5.65;;;5.35;;
72109;SDS011;59983;52.010;5.420;2024-03-08T17:30:25;7.15;;;6.55;;
72109;SDS011;59983;52.010;5.420;2024-03-08T17:32:57;6.03;;;5.57;;
72109;SDS011;59983;52.010;5.420;2024-03-08T17:35:27;6.68;;;6.18;;
72109;SDS011;59983;52.010;5.420;2024-03-08T17:37:55;6.78;;;6.28;;
72109;SDS011;59983;52.010;5.420;2024-03-08T17:40:27;6.75;;;6.25;;
72109;SDS011;59983;52.010;5.420;2024-03-08T17:45:23;6.77;;;6.27;;
72109;SDS011;59983;52.010;5.420;2024-03-08T17:47:51;6.90;;;6.40;;
72109;SDS011;59983;52.010;5.420;2024-03-08T17:50:19;7.18;;;6.68;;
72109;SDS011;59983;52.010;5.420;2024-03-08T17:52:47;8.30;;;7.70;;
72109;SDS011;59983;52.010;5.420;2024-03-08T17:55:17;9.32;;;8.57;;
72109;SDS011;59983;52.010;5.420;2024-03-08T17:57:49;9.17;;;8.27;;
72109;SDS011;59983;52.010;5.420;2024-03-08T18:00:18;8.65;;;7.95;;
72109;SDS011;59983;52.010;5.420;2024-03-08T18:02:59;8.68;;;8.05;;
72109;SDS011;59983;52.010;5.420;2024-03-08T18:05:27;9.27;;;8.52;;
72109;SDS011;59983;52.010;5.420;2024-03-08T18:07:59;8.55;;;7.75;;
72109;SDS011;59983;52.010;5.420;2024-03-08T18:10:27;9.30;;;8.50;;
72109;SDS011;59983;52.010;5.420;2024-03-08T18:12:57;9.63;;;8.73;;
72109;SDS011;59983;52.010;5.420;2024-03-08T18:15:34;13.40;;;9.27;;
72109;SDS011;59983;52.010;5.420;2024-03-08T18:18:00;9.30;;;8.52;;
72109;SDS011;59983;52.010;5.420;2024-03-08T18:20:31;10.10;;;9.30;;
72109;SDS011;59983;52.010;5.420;2024-03-08T18:22:58;8.97;;;8.37;;
72109;SDS011;59983;52.010;5.420;2024-03-08T18:25:30;9.98;;;9.10;;
72109;SDS011;59983;52.010;5.420;2024-03-08T18:27:59;9.68;;;8.95;;
72109;SDS011;59983;52.010;5.420;2024-03-08T18:30:32;9.82;;;9.07;;
72109;SDS011;59983;52.010;5.420;2024-03-08T18:32:59;9.38;;;8.55;;
72109;SDS011;59983;52.010;5.420;2024-03-08T18:35:25;10.67;;;9.70;;
72109;SDS011;59983;52.010;5.420;2024-03-08T18:37:52;10.88;;;10.02;;
72109;SDS011;59983;52.010;5.420;2024-03-08T18:40:22;10.70;;;9.80;;
72109;SDS011;59983;52.010;5.420;2024-03-08T18:42:50;9.98;;;9.15;;
72109;SDS011;59983;52.010;5.420;2024-03-08T18:45:18;9.88;;;9.07;;
72109;SDS011;59983;52.010;5.420;2024-03-08T18:47:49;10.00;;;9.20;;
72109;SDS011;59983;52.010;5.420;2024-03-08T18:50:18;10.02;;;9.23;;
72109;SDS011;59983;52.010;5.420;2024-03-08T18:52:46;10.68;;;9.77;;
72109;SDS011;59983;52.010;5.420;2024-03-08T18:55:14;9.52;;;8.68;;
72109;SDS011;59983;52.010;5.420;2024-03-08T18:57:43;10.60;;;9.70;;
72109;SDS011;59983;52.010;5.420;2024-03-08T19:00:11;10.37;;;9.50;;
72109;SDS011;59983;52.010;5.420;2024-03-08T19:02:47;10.13;;;9.23;;
72109;SDS011;59983;52.010;5.420;2024-03-08T19:05:15;10.63;;;9.73;;
72109;SDS011;59983;52.010;5.420;2024-03-08T19:07:47;10.13;;;9.23;;
72109;SDS011;59983;52.010;5.420;2024-03-08T19:10:16;11.05;;;9.93;;
72109;SDS011;59983;52.010;5.420;2024-03-08T19:12:49;10.27;;;9.40;;
72109;SDS011;59983;52.010;5.420;2024-03-08T19:15:20;10.38;;;9.50;;
72109;SDS011;59983;52.010;5.420;2024-03-08T19:17:48;11.18;;;10.18;;
72109;SDS011;59983;52.010;5.420;2024-03-08T19:20:19;9.85;;;9.15;;
72109;SDS011;59983;52.010;5.420;2024-03-08T19:22:50;10.95;;;9.93;;
72109;SDS011;59983;52.010;5.420;2024-03-08T19:25:24;10.90;;;10.13;;
72109;SDS011;59983;52.010;5.420;2024-03-08T19:27:57;10.10;;;9.40;;
72109;SDS011;59983;52.010;5.420;2024-03-08T19:30:30;9.85;;;9.15;;
72109;SDS011;59983;52.010;5.420;2024-03-08T19:32:58;10.48;;;9.48;;
72109;SDS011;59983;52.010;5.420;2024-03-08T19:35:27;10.20;;;9.35;;
72109;SDS011;59983;52.010;5.420;2024-03-08T19:37:56;10.17;;;9.27;;
72109;SDS011;59983;52.010;5.420;2024-03-08T19:40:26;9.13;;;8.05;;
72109;SDS011;59983;52.010;5.420;2024-03-08T19:43:07;9.75;;;8.93;;
72109;SDS011;59983;52.010;5.420;2024-03-08T19:45:37;9.38;;;8.57;;
72109;SDS011;59983;52.010;5.420;2024-03-08T19:48:09;9.90;;;9.02;;
72109;SDS011;59983;52.010;5.420;2024-03-08T19:50:42;9.70;;;8.90;;
72109;SDS011;59983;52.010;5.420;2024-03-08T19:53:09;9.27;;;8.68;;
72109;SDS011;59983;52.010;5.420;2024-03-08T19:55:37;10.27;;;9.48;;
72109;SDS011;59983;52.010;5.420;2024-03-08T19:58:06;9.45;;;8.65;;
72109;SDS011;59983;52.010;5.420;2024-03-08T20:00:33;10.10;;;9.20;;
72109;SDS011;59983;52.010;5.420;2024-03-08T20:03:01;11.13;;;10.10;;
72109;SDS011;59983;52.010;5.420;2024-03-08T20:05:29;9.05;;;8.38;;
72109;SDS011;59983;52.010;5.420;2024-03-08T20:07:57;9.98;;;9.25;;
72109;SDS011;59983;52.010;5.420;2024-03-08T20:10:31;8.65;;;7.95;;
72109;SDS011;59983;52.010;5.420;2024-03-08T20:12:58;9.70;;;8.90;;
72109;SDS011;59983;52.010;5.420;2024-03-08T20:15:25;9.17;;;8.30;;
72109;SDS011;59983;52.010;5.420;2024-03-08T20:17:52;8.77;;;8.07;;
72109;SDS011;59983;52.010;5.420;2024-03-08T20:20:20;9.15;;;8.43;;
72109;SDS011;59983;52.010;5.420;2024-03-08T20:22:51;8.80;;;8.02;;
72109;SDS011;59983;52.010;5.420;2024-03-08T20:25:19;9.57;;;8.88;;
72109;SDS011;59983;52.010;5.420;2024-03-08T20:27:53;8.50;;;7.80;;
72109;SDS011;59983;52.010;5.420;2024-03-08T20:30:28;9.07;;;8.43;;
72109;SDS011;59983;52.010;5.420;2024-03-08T20:32:59;8.82;;;8.02;;
72109;SDS011;59983;52.010;5.420;2024-03-08T20:35:29;9.00;;;8.30;;
72109;SDS011;59983;52.010;5.420;2024-03-08T20:38:00;9.18;;;8.48;;
72109;SDS011;59983;52.010;5.420;2024-03-08T20:40:29;9.43;;;8.63;;
72109;SDS011;59983;52.010;5.420;2024-03-08T20:43:03;9.10;;;8.30;;
72109;SDS011;59983;52.010;5.420;2024-03-08T20:45:31;8.15;;;7.47;;
72109;SDS011;59983;52.010;5.420;2024-03-08T20:47:58;8.98;;;8.30;;
72109;SDS011;59983;52.010;5.420;2024-03-08T20:50:27;9.43;;;8.63;;
72109;SDS011;59983;52.010;5.420;2024-03-08T20:52:54;7.90;;;7.30;;
72109;SDS011;59983;52.010;5.420;2024-03-08T20:55:20;7.93;;;7.32;;
72109;SDS011;59983;52.010;5.420;2024-03-08T20:57:51;8.73;;;8.05;;
72109;SDS011;59983;52.010;5.420;2024-03-08T21:00:20;8.65;;;7.95;;
72109;SDS011;59983;52.010;5.420;2024-03-08T21:03:09;7.47;;;6.88;;
72109;SDS011;59983;52.010;5.420;2024-03-08T21:05:41;7.87;;;7.27;;
72109;SDS011;59983;52.010;5.420;2024-03-08T21:08:09;8.32;;;7.63;;
72109;SDS011;59983;52.010;5.420;2024-03-08T21:10:47;8.50;;;7.63;;
72109;SDS011;59983;52.010;5.420;2024-03-08T21:13:14;9.55;;;7.80;;
72109;SDS011;59983;52.010;5.420;2024-03-08T21:15:41;7.82;;;7.13;;
72109;SDS011;59983;52.010;5.420;2024-03-08T21:18:11;6.87;;;6.37;;
72109;SDS011;59983;52.010;5.420;2024-03-08T21:20:39;8.27;;;7.65;;
72109;SDS011;59983;52.010;5.420;2024-03-08T21:23:07;7.82;;;7.20;;
72109;SDS011;59983;52.010;5.420;2024-03-08T21:25:36;8.23;;;7.53;;
72109;SDS011;59983;52.010;5.420;2024-03-08T21:28:06;7.70;;;7.10;;
72109;SDS011;59983;52.010;5.420;2024-03-08T21:30:33;8.83;;;8.03;;
72109;SDS011;59983;52.010;5.420;2024-03-08T21:33:01;8.00;;;7.38;;
72109;SDS011;59983;52.010;5.420;2024-03-08T21:35:34;7.78;;;7.18;;
72109;SDS011;59983;52.010;5.420;2024-03-08T21:38:01;7.78;;;7.07;;
72109;SDS011;59983;52.010;5.420;2024-03-08T21:40:29;8.13;;;7.53;;
72109;SDS011;59983;52.010;5.420;2024-03-08T21:42:58;8.50;;;7.80;;
72109;SDS011;59983;52.010;5.420;2024-03-08T21:45:26;7.60;;;6.47;;
72109;SDS011;59983;52.010;5.420;2024-03-08T21:47:56;7.68;;;7.05;;
72109;SDS011;59983;52.010;5.420;2024-03-08T21:50:30;7.88;;;7.18;;
72109;SDS011;59983;52.010;5.420;2024-03-08T21:52:57;7.53;;;6.82;;
72109;SDS011;59983;52.010;5.420;2024-03-08T21:55:24;7.50;;;6.97;;
72109;SDS011;59983;52.010;5.420;2024-03-08T21:57:53;7.60;;;7.00;;
72109;SDS011;59983;52.010;5.420;2024-03-08T22:00:20;8.20;;;7.50;;
72109;SDS011;59983;52.010;5.420;2024-03-08T22:02:49;7.95;;;7.30;;
72109;SDS011;59983;52.010;5.420;2024-03-08T22:05:17;7.18;;;6.57;;
72109;SDS011;59983;52.010;5.420;2024-03-08T22:07:47;7.20;;;6.60;;
72109;SDS011;59983;52.010;5.420;2024-03-08T22:10:16;7.93;;;7.15;;
72109;SDS011;59983;52.010;5.420;2024-03-08T22:12:53;8.07;;;7.40;;
72109;SDS011;59983;52.010;5.420;2024-03-08T22:15:22;10.20;;;7.50;;
72109;SDS011;59983;52.010;5.420;2024-03-08T22:17:49;7.85;;;7.15;;
72109;SDS011;59983;52.010;5.420;2024-03-08T22:20:19;8.33;;;7.63;;
72109;SDS011;59983;52.010;5.420;2024-03-08T22:22:47;7.82;;;7.22;;
72109;SDS011;59983;52.010;5.420;2024-03-08T22:25:16;10.13;;;7.75;;
72109;SDS011;59983;52.010;5.420;2024-03-08T22:27:44;8.13;;;7.47;;
72109;SDS011;59983;52.010;5.420;2024-03-08T22:30:11;9.02;;;8.32;;
72109;SDS011;59983;52.010;5.420;2024-03-08T22:32:41;9.93;;;7.60;;
72109;SDS011;59983;52.010;5.420;2024-03-08T22:35:08;7.53;;;6.97;;
72109;SDS011;59983;52.010;5.420;2024-03-08T22:37:36;8.18;;;7.43;;
72109;SDS011;59983;52.010;5.420;2024-03-08T22:40:03;9.35;;;7.65;;
72109;SDS011;59983;52.010;5.420;2024-03-08T22:42:41;8.00;;;7.35;;
72109;SDS011;59983;52.010;5.420;2024-03-08T22:45:09;7.07;;;6.57;;
72109;SDS011;59983;52.010;5.420;2024-03-08T22:47:37;7.53;;;6.78;;
72109;SDS011;59983;52.010;5.420;2024-03-08T22:50:04;8.43;;;7.60;;
72109;SDS011;59983;52.010;5.420;2024-03-08T22:52:32;8.57;;;7.88;;
72109;SDS011;59983;52.010;5.420;2024-03-08T22:54:58;8.10;;;7.30;;
72109;SDS011;59983;52.010;5.420;2024-03-08T22:57:25;8.30;;;7.60;;
72109;SDS011;59983;52.010;5.420;2024-03-08T22:59:53;8.32;;;7.63;;
72109;SDS011;59983;52.010;5.420;2024-03-08T23:02:21;8.13;;;7.43;;
72109;SDS011;59983;52.010;5.420;2024-03-08T23:04:48;8.73;;;7.82;;
72109;SDS011;59983;52.010;5.420;2024-03-08T23:07:15;8.77;;;7.45;;
72109;SDS011;59983;52.010;5.420;2024-03-08T23:09:41;7.27;;;6.77;;
72109;SDS011;59983;52.010;5.420;2024-03-08T23:12:09;7.93;;;7.22;;
72109;SDS011;59983;52.010;5.420;2024-03-08T23:14:37;7.30;;;6.80;;
72109;SDS011;59983;52.010;5.420;2024-03-08T23:17:08;8.02;;;7.43;;
72109;SDS011;59983;52.010;5.420;2024-03-08T23:19:35;8.00;;;7.30;;
72109;SDS011;59983;52.010;5.420;2024-03-08T23:22:05;7.27;;;6.67;;
72109;SDS011;59983;52.010;5.420;2024-03-08T23:24:36;7.38;;;6.78;;
72109;SDS011;59983;52.010;5.420;2024-03-08T23:27:03;7.55;;;6.90;;
72109;SDS011;59983;52.010;5.420;2024-03-08T23:29:30;7.38;;;6.88;;
72109;SDS011;59983;52.010;5.420;2024-03-08T23:31:56;8.27;;;7.57;;
72109;SDS011;59983;52.010;5.420;2024-03-08T23:34:23;6.87;;;6.37;;
72109;SDS011;59983;52.010;5.420;2024-03-08T23:36:51;8.48;;;7.78;;
72109;SDS011;59983;52.010;5.420;2024-03-08T23:39:19;7.50;;;6.95;;
72109;SDS011;59983;52.010;5.420;2024-03-08T23:41:51;7.57;;;7.00;;
72109;SDS011;59983;52.010;5.420;2024-03-08T23:44:18;7.93;;;7.22;;
72109;SDS011;59983;52.010;5.420;2024-03-08T23:46:45;7.67;;;7.17;;
72109;SDS011;59983;52.010;5.420;2024-03-08T23:49:14;6.72;;;6.32;;
72109;SDS011;59983;52.010;5.420;2024-03-08T23:51:44;8.57;;;7.85;;
72109;SDS011;59983;52.010;5.420;2024-03-08T23:54:11;7.30;;;6.72;;
72109;SDS011;59983;52.010;5.420;2024-03-08T23:56:39;7.38;;;6.78;;
72109;SDS011;59983;52.010;5.420;2024-03-08T23:59:07;6.83;;;6.33;;
